sensor_id;sensor_type;location;lat;lon;timestamp;pressure;altitude;pressure_sealevel;temperature
78961;BMP280;68362;45.970;12.646;2023-08-06T00:00:19;100141.00;;;17.86
78961;BMP280;68362;45.970;12.646;2023-08-06T00:01:41;100142.19;;;17.99
78961;BMP280;68362;45.970;12.646;2023-08-06T00:02:43;100138.31;;;18.10
78961;BMP280;68362;45.970;12.646;2023-08-06T00:03:45;100131.09;;;18.16
78961;BMP280;68362;45.970;12.646;2023-08-06T00:04:48;100135.09;;;17.94
78961;BMP280;68362;45.970;12.646;2023-08-06T00:05:50;100138.19;;;17.77
78961;BMP280;68362;45.970;12.646;2023-08-06T00:06:52;100135.84;;;17.71
78961;BMP280;68362;45.970;12.646;2023-08-06T00:07:54;100134.53;;;17.73
78961;BMP280;68362;45.970;12.646;2023-08-06T00:08:56;100135.63;;;17.67
78961;BMP280;68362;45.970;12.646;2023-08-06T00:09:59;100127.41;;;17.88
78961;BMP280;68362;45.970;12.646;2023-08-06T00:11:01;100138.56;;;17.90
78961;BMP280;68362;45.970;12.646;2023-08-06T00:12:03;100132.00;;;18.06
78961;BMP280;68362;45.970;12.646;2023-08-06T00:13:05;100130.66;;;18.09
78961;BMP280;68362;45.970;12.646;2023-08-06T00:14:08;100132.19;;;17.91
78961;BMP280;68362;45.970;12.646;2023-08-06T00:15:10;100130.03;;;17.69
78961;BMP280;68362;45.970;12.646;2023-08-06T00:16:12;100125.56;;;17.64
78961;BMP280;68362;45.970;12.646;2023-08-06T00:17:15;100120.03;;;17.61
78961;BMP280;68362;45.970;12.646;2023-08-06T00:18:17;100122.31;;;17.43
78961;BMP280;68362;45.970;12.646;2023-08-06T00:19:19;100117.03;;;17.43
78961;BMP280;68362;45.970;12.646;2023-08-06T00:20:21;100116.16;;;17.53
78961;BMP280;68362;45.970;12.646;2023-08-06T00:21:23;100113.19;;;17.55
78961;BMP280;68362;45.970;12.646;2023-08-06T00:22:25;100118.66;;;17.39
78961;BMP280;68362;45.970;12.646;2023-08-06T00:23:27;100112.00;;;17.42
78961;BMP280;68362;45.970;12.646;2023-08-06T00:24:29;100113.59;;;17.43
78961;BMP280;68362;45.970;12.646;2023-08-06T00:25:32;100113.53;;;17.24
78961;BMP280;68362;45.970;12.646;2023-08-06T00:26:34;100108.34;;;17.09
78961;BMP280;68362;45.970;12.646;2023-08-06T00:27:36;100109.25;;;16.94
78961;BMP280;68362;45.970;12.646;2023-08-06T00:28:38;100118.03;;;16.89
78961;BMP280;68362;45.970;12.646;2023-08-06T00:29:40;100117.13;;;16.99
78961;BMP280;68362;45.970;12.646;2023-08-06T00:30:42;100115.38;;;16.89
78961;BMP280;68362;45.970;12.646;2023-08-06T00:31:44;100118.56;;;16.86
78961;BMP280;68362;45.970;12.646;2023-08-06T00:32:46;100111.75;;;16.80
78961;BMP280;68362;45.970;12.646;2023-08-06T00:33:49;100111.19;;;16.83
78961;BMP280;68362;45.970;12.646;2023-08-06T00:34:51;100114.94;;;16.77
78961;BMP280;68362;45.970;12.646;2023-08-06T00:35:53;100113.34;;;16.76
78961;BMP280;68362;45.970;12.646;2023-08-06T00:36:55;100104.13;;;17.03
78961;BMP280;68362;45.970;12.646;2023-08-06T00:37:57;100107.28;;;17.10
78961;BMP280;68362;45.970;12.646;2023-08-06T00:38:59;100101.44;;;17.08
78961;BMP280;68362;45.970;12.646;2023-08-06T00:40:02;100107.13;;;16.91
78961;BMP280;68362;45.970;12.646;2023-08-06T00:41:04;100102.19;;;17.13
78961;BMP280;68362;45.970;12.646;2023-08-06T00:42:06;100107.63;;;17.32
78961;BMP280;68362;45.970;12.646;2023-08-06T00:43:08;100109.69;;;17.35
78961;BMP280;68362;45.970;12.646;2023-08-06T00:44:10;100110.53;;;17.55
78961;BMP280;68362;45.970;12.646;2023-08-06T00:45:12;100104.84;;;17.42
78961;BMP280;68362;45.970;12.646;2023-08-06T00:46:14;100109.13;;;17.38
78961;BMP280;68362;45.970;12.646;2023-08-06T00:47:17;100109.06;;;17.43
78961;BMP280;68362;45.970;12.646;2023-08-06T00:48:19;100107.38;;;17.53
78961;BMP280;68362;45.970;12.646;2023-08-06T00:49:22;100107.09;;;17.54
78961;BMP280;68362;45.970;12.646;2023-08-06T00:50:24;100105.59;;;17.48
78961;BMP280;68362;45.970;12.646;2023-08-06T00:51:27;100106.34;;;17.54
78961;BMP280;68362;45.970;12.646;2023-08-06T00:52:29;100103.69;;;17.54
78961;BMP280;68362;45.970;12.646;2023-08-06T00:53:31;100103.50;;;17.45
78961;BMP280;68362;45.970;12.646;2023-08-06T00:54:34;100104.19;;;17.56
78961;BMP280;68362;45.970;12.646;2023-08-06T00:55:37;100104.03;;;17.42
78961;BMP280;68362;45.970;12.646;2023-08-06T00:56:40;100098.94;;;17.22
78961;BMP280;68362;45.970;12.646;2023-08-06T00:57:43;100106.03;;;17.26
78961;BMP280;68362;45.970;12.646;2023-08-06T00:58:46;100102.53;;;17.36
78961;BMP280;68362;45.970;12.646;2023-08-06T00:59:49;100109.50;;;17.56
78961;BMP280;68362;45.970;12.646;2023-08-06T01:00:51;100103.69;;;17.54
78961;BMP280;68362;45.970;12.646;2023-08-06T01:01:53;100101.97;;;17.63
78961;BMP280;68362;45.970;12.646;2023-08-06T01:02:56;100108.22;;;17.72
78961;BMP280;68362;45.970;12.646;2023-08-06T01:03:59;100102.75;;;17.63
78961;BMP280;68362;45.970;12.646;2023-08-06T01:05:02;100101.34;;;17.71
78961;BMP280;68362;45.970;12.646;2023-08-06T01:06:04;100096.50;;;17.78
78961;BMP280;68362;45.970;12.646;2023-08-06T01:07:29;100091.22;;;17.73
78961;BMP280;68362;45.970;12.646;2023-08-06T01:08:48;100096.50;;;17.78
78961;BMP280;68362;45.970;12.646;2023-08-06T01:11:26;100100.09;;;17.87
78961;BMP280;68362;45.970;12.646;2023-08-06T01:12:51;100092.44;;;17.86
78961;BMP280;68362;45.970;12.646;2023-08-06T01:14:01;100097.31;;;17.97
78961;BMP280;68362;45.970;12.646;2023-08-06T01:16:09;100088.47;;;17.83
78961;BMP280;68362;45.970;12.646;2023-08-06T01:17:12;100095.34;;;17.84
78961;BMP280;68362;45.970;12.646;2023-08-06T01:18:15;100092.78;;;17.79
78961;BMP280;68362;45.970;12.646;2023-08-06T01:19:17;100093.94;;;17.92
78961;BMP280;68362;45.970;12.646;2023-08-06T01:20:19;100096.66;;;17.87
78961;BMP280;68362;45.970;12.646;2023-08-06T01:21:21;100093.94;;;17.92
78961;BMP280;68362;45.970;12.646;2023-08-06T01:22:24;100094.88;;;18.01
78961;BMP280;68362;45.970;12.646;2023-08-06T01:23:26;100094.59;;;18.02
78961;BMP280;68362;45.970;12.646;2023-08-06T01:24:28;100095.88;;;18.05
78961;BMP280;68362;45.970;12.646;2023-08-06T01:25:34;100095.25;;;17.94
78961;BMP280;68362;45.970;12.646;2023-08-06T01:27:02;100091.53;;;17.71
78961;BMP280;68362;45.970;12.646;2023-08-06T01:28:07;100093.22;;;17.86
78961;BMP280;68362;45.970;12.646;2023-08-06T01:29:29;100088.47;;;17.35
78961;BMP280;68362;45.970;12.646;2023-08-06T01:30:33;100089.47;;;17.39
78961;BMP280;68362;45.970;12.646;2023-08-06T01:31:39;100086.91;;;17.29
78961;BMP280;68362;45.970;12.646;2023-08-06T01:32:44;100084.81;;;17.26
78961;BMP280;68362;45.970;12.646;2023-08-06T01:33:48;100087.22;;;17.28
78961;BMP280;68362;45.970;12.646;2023-08-06T01:34:51;100082.41;;;17.01
78961;BMP280;68362;45.970;12.646;2023-08-06T01:35:55;100081.75;;;17.14
78961;BMP280;68362;45.970;12.646;2023-08-06T01:36:57;100081.34;;;17.31
78961;BMP280;68362;45.970;12.646;2023-08-06T01:38:01;100086.78;;;17.44
78961;BMP280;68362;45.970;12.646;2023-08-06T01:39:04;100087.41;;;17.60
78961;BMP280;68362;45.970;12.646;2023-08-06T01:40:11;100089.69;;;17.67
78961;BMP280;68362;45.970;12.646;2023-08-06T01:41:16;100082.59;;;17.38
78961;BMP280;68362;45.970;12.646;2023-08-06T01:42:17;100088.72;;;17.34
78961;BMP280;68362;45.970;12.646;2023-08-06T01:43:20;100084.34;;;17.48
78961;BMP280;68362;45.970;12.646;2023-08-06T01:44:22;100088.34;;;17.45
78961;BMP280;68362;45.970;12.646;2023-08-06T01:45:24;100083.16;;;17.59
78961;BMP280;68362;45.970;12.646;2023-08-06T01:46:26;100086.63;;;17.36
78961;BMP280;68362;45.970;12.646;2023-08-06T01:47:28;100085.75;;;17.40
78961;BMP280;68362;45.970;12.646;2023-08-06T01:48:31;100082.22;;;17.50
78961;BMP280;68362;45.970;12.646;2023-08-06T01:49:33;100080.50;;;17.59
78961;BMP280;68362;45.970;12.646;2023-08-06T01:50:35;100079.72;;;17.59
78961;BMP280;68362;45.970;12.646;2023-08-06T01:51:37;100079.06;;;17.67
78961;BMP280;68362;45.970;12.646;2023-08-06T01:52:39;100084.97;;;17.64
78961;BMP280;68362;45.970;12.646;2023-08-06T01:53:41;100070.97;;;17.58
78961;BMP280;68362;45.970;12.646;2023-08-06T01:54:43;100077.03;;;17.35
78961;BMP280;68362;45.970;12.646;2023-08-06T01:55:49;100070.59;;;17.17
78961;BMP280;68362;45.970;12.646;2023-08-06T01:56:51;100074.34;;;17.40
78961;BMP280;68362;45.970;12.646;2023-08-06T01:57:53;100075.44;;;17.10
78961;BMP280;68362;45.970;12.646;2023-08-06T01:58:56;100072.41;;;16.92
78961;BMP280;68362;45.970;12.646;2023-08-06T01:59:58;100069.44;;;17.28
78961;BMP280;68362;45.970;12.646;2023-08-06T02:01:01;100071.66;;;17.45
78961;BMP280;68362;45.970;12.646;2023-08-06T02:02:03;100059.00;;;17.37
78961;BMP280;68362;45.970;12.646;2023-08-06T02:03:06;100063.94;;;17.19
78961;BMP280;68362;45.970;12.646;2023-08-06T02:04:08;100060.72;;;16.94
78961;BMP280;68362;45.970;12.646;2023-08-06T02:05:10;100066.41;;;17.11
78961;BMP280;68362;45.970;12.646;2023-08-06T02:06:12;100069.44;;;17.28
78961;BMP280;68362;45.970;12.646;2023-08-06T02:07:14;100058.88;;;17.23
78961;BMP280;68362;45.970;12.646;2023-08-06T02:08:16;100065.66;;;17.34
78961;BMP280;68362;45.970;12.646;2023-08-06T02:09:19;100070.31;;;17.47
78961;BMP280;68362;45.970;12.646;2023-08-06T02:10:21;100067.69;;;17.42
78961;BMP280;68362;45.970;12.646;2023-08-06T02:11:23;100073.53;;;17.44
78961;BMP280;68362;45.970;12.646;2023-08-06T02:12:25;100075.38;;;17.44
78961;BMP280;68362;45.970;12.646;2023-08-06T02:13:27;100063.09;;;17.53
78961;BMP280;68362;45.970;12.646;2023-08-06T02:14:29;100071.75;;;17.59
78961;BMP280;68362;45.970;12.646;2023-08-06T02:15:31;100070.88;;;17.44
78961;BMP280;68362;45.970;12.646;2023-08-06T02:16:33;100077.88;;;17.35
78961;BMP280;68362;45.970;12.646;2023-08-06T02:17:35;100070.38;;;17.37
78961;BMP280;68362;45.970;12.646;2023-08-06T02:18:38;100077.97;;;17.49
78961;BMP280;68362;45.970;12.646;2023-08-06T02:19:40;100066.53;;;17.54
78961;BMP280;68362;45.970;12.646;2023-08-06T02:20:42;100064.53;;;17.40
78961;BMP280;68362;45.970;12.646;2023-08-06T02:21:45;100060.50;;;17.43
78961;BMP280;68362;45.970;12.646;2023-08-06T02:22:47;100054.66;;;17.17
78961;BMP280;68362;45.970;12.646;2023-08-06T02:23:49;100051.78;;;16.84
78961;BMP280;68362;45.970;12.646;2023-08-06T02:24:51;100058.94;;;16.89
78961;BMP280;68362;45.970;12.646;2023-08-06T02:26:04;100053.47;;;16.75
78961;BMP280;68362;45.970;12.646;2023-08-06T02:27:06;100062.81;;;16.97
78961;BMP280;68362;45.970;12.646;2023-08-06T02:28:08;100057.00;;;16.95
78961;BMP280;68362;45.970;12.646;2023-08-06T02:29:10;100060.50;;;17.19
78961;BMP280;68362;45.970;12.646;2023-08-06T02:30:13;100059.75;;;17.13
78961;BMP280;68362;45.970;12.646;2023-08-06T02:31:15;100061.31;;;17.19
78961;BMP280;68362;45.970;12.646;2023-08-06T02:32:17;100062.19;;;17.34
78961;BMP280;68362;45.970;12.646;2023-08-06T02:33:19;100049.66;;;17.44
78961;BMP280;68362;45.970;12.646;2023-08-06T02:34:21;100056.28;;;17.42
78961;BMP280;68362;45.970;12.646;2023-08-06T02:35:23;100052.19;;;17.02
78961;BMP280;68362;45.970;12.646;2023-08-06T02:36:25;100053.56;;;17.23
78961;BMP280;68362;45.970;12.646;2023-08-06T02:37:33;100052.38;;;17.10
78961;BMP280;68362;45.970;12.646;2023-08-06T02:38:36;100048.69;;;17.35
78961;BMP280;68362;45.970;12.646;2023-08-06T02:39:38;100047.25;;;17.43
78961;BMP280;68362;45.970;12.646;2023-08-06T02:40:45;100052.78;;;17.46
78961;BMP280;68362;45.970;12.646;2023-08-06T02:41:48;100047.28;;;17.14
78961;BMP280;68362;45.970;12.646;2023-08-06T02:42:50;100062.94;;;17.39
78961;BMP280;68362;45.970;12.646;2023-08-06T02:43:52;100051.16;;;17.51
78961;BMP280;68362;45.970;12.646;2023-08-06T02:44:54;100054.47;;;17.61
78961;BMP280;68362;45.970;12.646;2023-08-06T02:45:58;100043.19;;;17.51
78961;BMP280;68362;45.970;12.646;2023-08-06T02:47:01;100048.72;;;17.54
78961;BMP280;68362;45.970;12.646;2023-08-06T02:48:04;100053.13;;;17.64
78961;BMP280;68362;45.970;12.646;2023-08-06T02:49:06;100054.19;;;17.63
78961;BMP280;68362;45.970;12.646;2023-08-06T02:50:08;100058.88;;;17.71
78961;BMP280;68362;45.970;12.646;2023-08-06T02:51:11;100051.66;;;17.53
78961;BMP280;68362;45.970;12.646;2023-08-06T02:52:13;100050.09;;;17.28
78961;BMP280;68362;45.970;12.646;2023-08-06T02:53:15;100050.78;;;17.09
78961;BMP280;68362;45.970;12.646;2023-08-06T02:54:18;100056.50;;;17.22
78961;BMP280;68362;45.970;12.646;2023-08-06T02:55:20;100053.53;;;17.28
78961;BMP280;68362;45.970;12.646;2023-08-06T02:56:23;100046.66;;;17.46
78961;BMP280;68362;45.970;12.646;2023-08-06T02:57:25;100048.97;;;17.58
78961;BMP280;68362;45.970;12.646;2023-08-06T02:58:27;100050.47;;;17.40
78961;BMP280;68362;45.970;12.646;2023-08-06T02:59:30;100049.16;;;17.37
78961;BMP280;68362;45.970;12.646;2023-08-06T03:00:33;100056.75;;;17.49
78961;BMP280;68362;45.970;12.646;2023-08-06T03:01:35;100056.34;;;17.37
78961;BMP280;68362;45.970;12.646;2023-08-06T03:02:38;100058.63;;;16.90
78961;BMP280;68362;45.970;12.646;2023-08-06T03:03:40;100051.56;;;16.81
78961;BMP280;68362;45.970;12.646;2023-08-06T03:04:42;100045.19;;;17.11
78961;BMP280;68362;45.970;12.646;2023-08-06T03:05:54;100057.72;;;17.29
78961;BMP280;68362;45.970;12.646;2023-08-06T03:06:56;100051.19;;;17.45
78961;BMP280;68362;45.970;12.646;2023-08-06T03:07:59;100049.06;;;17.47
78961;BMP280;68362;45.970;12.646;2023-08-06T03:09:01;100054.59;;;17.51
78961;BMP280;68362;45.970;12.646;2023-08-06T03:10:03;100055.38;;;17.52
78961;BMP280;68362;45.970;12.646;2023-08-06T03:11:05;100053.97;;;17.59
78961;BMP280;68362;45.970;12.646;2023-08-06T03:12:08;100053.31;;;17.48
78961;BMP280;68362;45.970;12.646;2023-08-06T03:13:10;100058.41;;;17.64
78961;BMP280;68362;45.970;12.646;2023-08-06T03:14:12;100056.78;;;17.68
78961;BMP280;68362;45.970;12.646;2023-08-06T03:15:14;100052.00;;;17.70
78961;BMP280;68362;45.970;12.646;2023-08-06T03:16:16;100058.31;;;17.74
78961;BMP280;68362;45.970;12.646;2023-08-06T03:17:18;100060.66;;;17.75
78961;BMP280;68362;45.970;12.646;2023-08-06T03:18:21;100063.69;;;17.69
78961;BMP280;68362;45.970;12.646;2023-08-06T03:19:23;100059.88;;;17.75
78961;BMP280;68362;45.970;12.646;2023-08-06T03:20:25;100067.59;;;17.76
78961;BMP280;68362;45.970;12.646;2023-08-06T03:21:28;100071.03;;;17.77
78961;BMP280;68362;45.970;12.646;2023-08-06T03:22:30;100070.16;;;17.82
78961;BMP280;68362;45.970;12.646;2023-08-06T03:23:32;100077.38;;;17.76
78961;BMP280;68362;45.970;12.646;2023-08-06T03:24:34;100071.63;;;17.21
78961;BMP280;68362;45.970;12.646;2023-08-06T03:25:36;100075.31;;;17.20
78961;BMP280;68362;45.970;12.646;2023-08-06T03:26:38;100078.59;;;17.41
78961;BMP280;68362;45.970;12.646;2023-08-06T03:27:40;100075.59;;;17.47
78961;BMP280;68362;45.970;12.646;2023-08-06T03:28:42;100073.44;;;17.49
78961;BMP280;68362;45.970;12.646;2023-08-06T03:29:45;100075.53;;;17.53
78961;BMP280;68362;45.970;12.646;2023-08-06T03:30:47;100075.03;;;17.51
78961;BMP280;68362;45.970;12.646;2023-08-06T03:31:49;100075.41;;;17.63
78961;BMP280;68362;45.970;12.646;2023-08-06T03:32:53;100067.25;;;17.59
78961;BMP280;68362;45.970;12.646;2023-08-06T03:33:56;100069.03;;;17.64
78961;BMP280;68362;45.970;12.646;2023-08-06T03:34:58;100075.13;;;17.64
78961;BMP280;68362;45.970;12.646;2023-08-06T03:36:00;100068.47;;;17.67
78961;BMP280;68362;45.970;12.646;2023-08-06T03:37:02;100066.47;;;17.59
78961;BMP280;68362;45.970;12.646;2023-08-06T03:38:04;100067.47;;;17.39
78961;BMP280;68362;45.970;12.646;2023-08-06T03:39:06;100061.75;;;17.27
78961;BMP280;68362;45.970;12.646;2023-08-06T03:40:09;100054.91;;;17.20
78961;BMP280;68362;45.970;12.646;2023-08-06T03:41:11;100055.31;;;17.09
78961;BMP280;68362;45.970;12.646;2023-08-06T03:42:14;100053.31;;;16.90
78961;BMP280;68362;45.970;12.646;2023-08-06T03:43:16;100051.81;;;16.79
78961;BMP280;68362;45.970;12.646;2023-08-06T03:44:18;100052.00;;;16.59
78961;BMP280;68362;45.970;12.646;2023-08-06T03:45:20;100040.25;;;16.70
78961;BMP280;68362;45.970;12.646;2023-08-06T03:46:23;100049.88;;;16.56
78961;BMP280;68362;45.970;12.646;2023-08-06T03:47:25;100044.44;;;16.37
78961;BMP280;68362;45.970;12.646;2023-08-06T03:48:27;100048.28;;;16.55
78961;BMP280;68362;45.970;12.646;2023-08-06T03:49:29;100052.31;;;16.86
78961;BMP280;68362;45.970;12.646;2023-08-06T03:50:31;100050.03;;;17.04
78961;BMP280;68362;45.970;12.646;2023-08-06T03:51:33;100043.09;;;17.08
78961;BMP280;68362;45.970;12.646;2023-08-06T03:52:35;100053.84;;;17.22
78961;BMP280;68362;45.970;12.646;2023-08-06T03:53:37;100049.25;;;17.32
78961;BMP280;68362;45.970;12.646;2023-08-06T03:54:40;100048.72;;;17.30
78961;BMP280;68362;45.970;12.646;2023-08-06T03:55:42;100051.75;;;17.18
78961;BMP280;68362;45.970;12.646;2023-08-06T03:56:45;100052.66;;;17.33
78961;BMP280;68362;45.970;12.646;2023-08-06T03:57:47;100050.50;;;17.35
78961;BMP280;68362;45.970;12.646;2023-08-06T03:58:49;100050.88;;;17.28
78961;BMP280;68362;45.970;12.646;2023-08-06T03:59:51;100051.81;;;17.37
78961;BMP280;68362;45.970;12.646;2023-08-06T04:01:03;100057.06;;;17.42
78961;BMP280;68362;45.970;12.646;2023-08-06T04:02:05;100047.78;;;17.45
78961;BMP280;68362;45.970;12.646;2023-08-06T04:03:07;100059.16;;;17.45
78961;BMP280;68362;45.970;12.646;2023-08-06T04:04:09;100051.66;;;17.53
78961;BMP280;68362;45.970;12.646;2023-08-06T04:05:12;100048.97;;;17.58
78961;BMP280;68362;45.970;12.646;2023-08-06T04:06:14;100055.59;;;17.31
78961;BMP280;68362;45.970;12.646;2023-08-06T04:07:16;100052.91;;;17.36
78961;BMP280;68362;45.970;12.646;2023-08-06T04:08:18;100055.06;;;17.29
78961;BMP280;68362;45.970;12.646;2023-08-06T04:09:20;100057.59;;;16.86
78961;BMP280;68362;45.970;12.646;2023-08-06T04:10:22;100052.31;;;16.47
78961;BMP280;68362;45.970;12.646;2023-08-06T04:11:25;100056.41;;;16.29
78961;BMP280;68362;45.970;12.646;2023-08-06T04:12:27;100063.22;;;16.46
78961;BMP280;68362;45.970;12.646;2023-08-06T04:13:29;100068.88;;;16.68
78961;BMP280;68362;45.970;12.646;2023-08-06T04:14:31;100059.28;;;16.77
78961;BMP280;68362;45.970;12.646;2023-08-06T04:15:34;100061.59;;;16.84
78961;BMP280;68362;45.970;12.646;2023-08-06T04:16:36;100066.03;;;16.94
78961;BMP280;68362;45.970;12.646;2023-08-06T04:17:38;100067.09;;;16.92
78961;BMP280;68362;45.970;12.646;2023-08-06T04:18:41;100063.88;;;16.96
78961;BMP280;68362;45.970;12.646;2023-08-06T04:19:43;100072.59;;;16.67
78961;BMP280;68362;45.970;12.646;2023-08-06T04:20:46;100068.88;;;16.68
78961;BMP280;68362;45.970;12.646;2023-08-06T04:21:48;100072.19;;;16.50
78961;BMP280;68362;45.970;12.646;2023-08-06T04:22:54;100074.13;;;16.39
78961;BMP280;68362;45.970;12.646;2023-08-06T04:23:56;100072.97;;;16.50
78961;BMP280;68362;45.970;12.646;2023-08-06T04:24:59;100071.06;;;16.56
78961;BMP280;68362;45.970;12.646;2023-08-06T04:26:01;100067.97;;;16.49
78961;BMP280;68362;45.970;12.646;2023-08-06T04:27:03;100068.16;;;16.57
78961;BMP280;68362;45.970;12.646;2023-08-06T04:28:06;100063.06;;;16.27
78961;BMP280;68362;45.970;12.646;2023-08-06T04:29:08;100060.09;;;16.39
78961;BMP280;68362;45.970;12.646;2023-08-06T04:30:10;100055.81;;;16.43
78961;BMP280;68362;45.970;12.646;2023-08-06T04:31:14;100053.84;;;16.58
78961;BMP280;68362;45.970;12.646;2023-08-06T04:32:17;100056.94;;;16.71
78961;BMP280;68362;45.970;12.646;2023-08-06T04:33:21;100048.13;;;16.80
78961;BMP280;68362;45.970;12.646;2023-08-06T04:34:23;100053.38;;;16.85
78961;BMP280;68362;45.970;12.646;2023-08-06T04:35:25;100054.88;;;16.97
78961;BMP280;68362;45.970;12.646;2023-08-06T04:36:27;100048.22;;;16.99
78961;BMP280;68362;45.970;12.646;2023-08-06T04:37:29;100039.59;;;16.88
78961;BMP280;68362;45.970;12.646;2023-08-06T04:38:31;100047.41;;;16.99
78961;BMP280;68362;45.970;12.646;2023-08-06T04:39:33;100038.34;;;16.76
78961;BMP280;68362;45.970;12.646;2023-08-06T04:40:36;100041.41;;;16.88
78961;BMP280;68362;45.970;12.646;2023-08-06T04:41:39;100040.25;;;16.99
78961;BMP280;68362;45.970;12.646;2023-08-06T04:42:41;100041.00;;;17.05
78961;BMP280;68362;45.970;12.646;2023-08-06T04:43:43;100036.97;;;17.12
78961;BMP280;68362;45.970;12.646;2023-08-06T04:44:45;100037.47;;;17.14
78961;BMP280;68362;45.970;12.646;2023-08-06T04:45:49;100042.03;;;17.09
78961;BMP280;68362;45.970;12.646;2023-08-06T04:46:51;100036.25;;;17.07
78961;BMP280;68362;45.970;12.646;2023-08-06T04:47:53;100032.78;;;17.06
78961;BMP280;68362;45.970;12.646;2023-08-06T04:48:55;100027.00;;;16.99
78961;BMP280;68362;45.970;12.646;2023-08-06T04:49:57;100024.50;;;17.13
78961;BMP280;68362;45.970;12.646;2023-08-06T04:51:00;100023.69;;;16.88
78961;BMP280;68362;45.970;12.646;2023-08-06T04:52:02;100019.19;;;16.84
78961;BMP280;68362;45.970;12.646;2023-08-06T04:53:04;100011.94;;;16.66
78961;BMP280;68362;45.970;12.646;2023-08-06T04:54:06;100001.69;;;16.54
78961;BMP280;68362;45.970;12.646;2023-08-06T04:55:08;100005.59;;;16.27
78961;BMP280;68362;45.970;12.646;2023-08-06T04:56:10;100000.84;;;16.24
78961;BMP280;68362;45.970;12.646;2023-08-06T04:57:13;100002.84;;;16.38
78961;BMP280;68362;45.970;12.646;2023-08-06T04:58:15;99999.97;;;16.34
78961;BMP280;68362;45.970;12.646;2023-08-06T04:59:17;99995.88;;;16.52
78961;BMP280;68362;45.970;12.646;2023-08-06T05:00:19;99989.31;;;16.73
78961;BMP280;68362;45.970;12.646;2023-08-06T05:01:21;99991.91;;;16.54
78961;BMP280;68362;45.970;12.646;2023-08-06T05:02:23;99984.06;;;16.68
78961;BMP280;68362;45.970;12.646;2023-08-06T05:03:25;99989.69;;;16.61
78961;BMP280;68362;45.970;12.646;2023-08-06T05:04:28;99983.00;;;16.69
78961;BMP280;68362;45.970;12.646;2023-08-06T05:05:30;99988.34;;;16.64
78961;BMP280;68362;45.970;12.646;2023-08-06T05:06:32;99988.94;;;16.56
78961;BMP280;68362;45.970;12.646;2023-08-06T05:07:35;99984.28;;;16.77
78961;BMP280;68362;45.970;12.646;2023-08-06T05:08:37;99992.59;;;16.65
78961;BMP280;68362;45.970;12.646;2023-08-06T05:09:39;99993.19;;;16.57
78961;BMP280;68362;45.970;12.646;2023-08-06T05:10:43;99993.22;;;16.52
78961;BMP280;68362;45.970;12.646;2023-08-06T05:11:49;99992.34;;;16.61
78961;BMP280;68362;45.970;12.646;2023-08-06T05:12:51;99993.88;;;16.68
78961;BMP280;68362;45.970;12.646;2023-08-06T05:13:54;99994.16;;;16.71
78961;BMP280;68362;45.970;12.646;2023-08-06T05:14:56;99998.31;;;16.77
78961;BMP280;68362;45.970;12.646;2023-08-06T05:15:58;100002.94;;;16.90
78961;BMP280;68362;45.970;12.646;2023-08-06T05:17:00;100005.66;;;16.85
78961;BMP280;68362;45.970;12.646;2023-08-06T05:18:04;100021.47;;;16.96
78961;BMP280;68362;45.970;12.646;2023-08-06T05:19:06;100016.53;;;16.89
78961;BMP280;68362;45.970;12.646;2023-08-06T05:20:08;100026.97;;;17.04
78961;BMP280;68362;45.970;12.646;2023-08-06T05:21:10;100027.28;;;16.69
78961;BMP280;68362;45.970;12.646;2023-08-06T05:22:13;100028.94;;;16.59
78961;BMP280;68362;45.970;12.646;2023-08-06T05:23:15;100031.47;;;16.75
78961;BMP280;68362;45.970;12.646;2023-08-06T05:24:17;100023.78;;;16.73
78961;BMP280;68362;45.970;12.646;2023-08-06T05:25:22;100022.94;;;16.83
78961;BMP280;68362;45.970;12.646;2023-08-06T05:26:24;100025.97;;;16.95
78961;BMP280;68362;45.970;12.646;2023-08-06T05:27:26;100026.75;;;17.01
78961;BMP280;68362;45.970;12.646;2023-08-06T05:28:28;100027.25;;;17.03
78961;BMP280;68362;45.970;12.646;2023-08-06T05:29:30;100021.63;;;16.80
78961;BMP280;68362;45.970;12.646;2023-08-06T05:30:33;100033.09;;;17.00
78961;BMP280;68362;45.970;12.646;2023-08-06T05:31:35;100031.97;;;17.06
78961;BMP280;68362;45.970;12.646;2023-08-06T05:32:37;100032.66;;;17.16
78961;BMP280;68362;45.970;12.646;2023-08-06T05:33:39;100032.88;;;17.20
78961;BMP280;68362;45.970;12.646;2023-08-06T05:34:42;100033.38;;;17.27
78961;BMP280;68362;45.970;12.646;2023-08-06T05:35:44;100037.06;;;17.26
78961;BMP280;68362;45.970;12.646;2023-08-06T05:36:46;100038.94;;;17.02
78961;BMP280;68362;45.970;12.646;2023-08-06T05:37:50;100036.75;;;17.09
78961;BMP280;68362;45.970;12.646;2023-08-06T05:38:52;100045.13;;;17.16
78961;BMP280;68362;45.970;12.646;2023-08-06T05:39:54;100041.38;;;17.22
78961;BMP280;68362;45.970;12.646;2023-08-06T05:40:56;100038.19;;;17.20
78961;BMP280;68362;45.970;12.646;2023-08-06T05:41:58;100041.38;;;17.22
78961;BMP280;68362;45.970;12.646;2023-08-06T05:43:01;100047.84;;;17.11
78961;BMP280;68362;45.970;12.646;2023-08-06T05:44:03;100048.16;;;17.33
78961;BMP280;68362;45.970;12.646;2023-08-06T05:45:05;100048.44;;;17.32
78961;BMP280;68362;45.970;12.646;2023-08-06T05:46:08;100044.06;;;17.17
78961;BMP280;68362;45.970;12.646;2023-08-06T05:47:10;100041.22;;;17.08
78961;BMP280;68362;45.970;12.646;2023-08-06T05:48:12;100041.09;;;16.95
78961;BMP280;68362;45.970;12.646;2023-08-06T05:49:15;100040.78;;;16.72
78961;BMP280;68362;45.970;12.646;2023-08-06T05:50:17;100043.44;;;16.67
78961;BMP280;68362;45.970;12.646;2023-08-06T05:51:19;100044.72;;;16.75
78961;BMP280;68362;45.970;12.646;2023-08-06T05:52:22;100045.13;;;16.53
78961;BMP280;68362;45.970;12.646;2023-08-06T05:53:24;100049.41;;;16.49
78961;BMP280;68362;45.970;12.646;2023-08-06T05:54:26;100049.66;;;16.47